Time;durP1;ratioP1;P1;durP2;ratioP2;P2;SDS_P1;SDS_P2;PMS_P1;PMS_P2;Temp;Humidity;BMP_temperature;BMP_pressure;BME280_temperature;BME280_humidity;BME280_pressure;Samples;Min_cycle;Max_cycle;Signal;HPM_P1;HPM_P2
2023/09/03 00:02:24;;;;;;;2.90;2.70;;;;;;;-141.26;100.00;62741.75;5081913;28;20276;-67
2023/09/03 00:04:51;;;;;;;3.00;2.80;;;;;;;-141.26;100.00;62741.75;5081811;28;20257;-67
2023/09/03 00:07:18;;;;;;;3.60;2.87;;;;;;;-141.26;100.00;62741.75;5063523;28;20261;-67
2023/09/03 00:09:46;;;;;;;3.00;2.70;;;;;;;-141.26;100.00;62741.75;5063461;28;20264;-67
2023/09/03 00:12:13;;;;;;;4.60;3.20;;;;;;;-141.26;100.00;62741.75;5063575;28;20223;-67
2023/09/03 00:14:41;;;;;;;3.00;2.70;;;;;;;-141.26;100.00;62741.75;5082124;28;20305;-67
2023/09/03 00:17:13;;;;;;;2.13;2.03;;;;;;;-141.26;100.00;62741.75;5070084;28;20233;-67
2023/09/03 00:19:40;;;;;;;2.50;2.30;;;;;;;-141.26;100.00;62741.75;5088594;28;20234;-67
2023/09/03 00:22:08;;;;;;;2.90;2.57;;;;;;;-141.26;100.00;62741.75;5086789;28;20220;-67
2023/09/03 00:24:35;;;;;;;2.80;2.60;;;;;;;-141.26;100.00;62741.75;5069577;28;20313;-67
2023/09/03 00:27:02;;;;;;;3.20;2.50;;;;;;;-141.26;100.00;62741.75;5069574;28;20245;-67
2023/09/03 00:29:29;;;;;;;2.83;2.50;;;;;;;-141.26;100.00;62741.75;5070017;28;20222;-67
2023/09/03 00:31:58;;;;;;;2.70;2.50;;;;;;;-141.26;100.00;62741.75;5070083;28;20228;-67
2023/09/03 00:34:25;;;;;;;3.40;3.20;;;;;;;-141.26;100.00;62741.75;5069778;28;20221;-67
2023/09/03 00:36:52;;;;;;;6.30;3.60;;;;;;;-141.26;100.00;62741.75;5069729;28;20234;-67
2023/09/03 00:39:20;;;;;;;4.07;3.33;;;;;;;-141.26;100.00;62741.75;5069847;28;20215;-67
2023/09/03 00:41:47;;;;;;;3.23;3.03;;;;;;;-141.26;100.00;62741.75;5088134;28;20289;-67
2023/09/03 00:44:15;;;;;;;3.73;3.30;;;;;;;-141.26;100.00;62741.75;5069855;28;20230;-67
2023/09/03 00:46:42;;;;;;;3.73;3.23;;;;;;;-141.26;100.00;62741.75;5086660;28;20222;-67
2023/09/03 00:49:12;;;;;;;4.43;3.33;;;;;;;-141.26;100.00;62741.75;5088010;28;20245;-67
2023/09/03 00:51:40;;;;;;;4.30;3.93;;;;;;;-141.26;100.00;62741.75;5086475;28;20309;-67
2023/09/03 00:54:08;;;;;;;3.43;3.13;;;;;;;-141.26;100.00;62741.75;5069729;28;20252;-67
2023/09/03 00:56:36;;;;;;;4.10;3.70;;;;;;;-141.26;100.00;62741.75;5086406;28;20258;-67
2023/09/03 00:59:03;;;;;;;3.50;3.20;;;;;;;-141.26;100.00;62741.75;5069661;28;20222;-67
2023/09/03 01:01:30;;;;;;;3.10;2.90;;;;;;;-141.26;100.00;62741.75;5069506;28;20237;-67
2023/09/03 01:03:58;;;;;;;3.47;3.17;;;;;;;-141.26;100.00;62741.75;5069637;28;20244;-67
2023/09/03 01:06:26;;;;;;;3.50;3.20;;;;;;;-141.26;100.00;62741.75;5069597;28;20218;-67
2023/09/03 01:08:54;;;;;;;3.20;2.90;;;;;;;-141.26;100.00;62741.75;5069628;28;20227;-67
2023/09/03 01:11:37;;;;;;;4.03;3.63;;;;;;;-141.26;100.00;62741.75;5069440;28;20279;-67
2023/09/03 01:14:14;;;;;;;4.80;3.50;;;;;;;-141.26;100.00;62741.75;5069497;28;20226;-67
2023/09/03 01:16:49;;;;;;;3.43;3.13;;;;;;;-141.26;100.00;62741.75;5069349;28;20301;-67
2023/09/03 01:19:38;;;;;;;4.87;3.93;;;;;;;-141.26;100.00;62741.75;5069304;28;20283;-67
2023/09/03 01:22:23;;;;;;;3.93;3.57;;;;;;;-141.26;100.00;62741.75;5086298;28;20260;-67
2023/09/03 01:25:05;;;;;;;3.70;3.50;;;;;;;-141.26;100.00;62741.75;5086266;28;20225;-67
2023/09/03 01:27:40;;;;;;;3.73;3.10;;;;;;;-141.26;100.00;62741.75;5066123;28;20234;-67
2023/09/03 01:30:09;;;;;;;4.20;3.60;;;;;;;-141.26;100.00;62741.75;5065979;28;20263;-67
2023/09/03 01:32:38;;;;;;;3.20;3.00;;;;;;;-141.26;100.00;62741.75;5065852;28;20230;-67
2023/09/03 01:35:07;;;;;;;3.30;2.90;;;;;;;-141.26;100.00;62741.75;5082623;28;20228;-67
2023/09/03 01:37:34;;;;;;;3.10;2.90;;;;;;;-141.26;100.00;62741.75;5065830;28;20230;-67
2023/09/03 01:40:01;;;;;;;4.07;3.67;;;;;;;-141.26;100.00;62741.75;5065925;28;20219;-67
2023/09/03 01:42:28;;;;;;;4.30;3.27;;;;;;;-141.26;100.00;62741.75;5065626;28;20214;-67
2023/09/03 01:44:56;;;;;;;4.40;3.60;;;;;;;-141.26;100.00;62741.75;5083927;28;20334;-67
2023/09/03 01:47:32;;;;;;;3.40;3.10;;;;;;;-141.26;100.00;62741.75;5082467;28;20222;-67
2023/09/03 01:50:08;;;;;;;3.60;3.30;;;;;;;-141.26;100.00;62741.75;5082487;28;20225;-67
2023/09/03 01:52:40;;;;;;;4.23;3.80;;;;;;;-141.26;100.00;62741.75;5065500;28;20226;-67
2023/09/03 01:55:11;;;;;;;3.70;3.40;;;;;;;-141.26;100.00;62741.75;5082339;28;20221;-67
2023/09/03 01:57:41;;;;;;;3.03;2.83;;;;;;;-141.26;100.00;62741.75;5065527;28;20248;-67
2023/09/03 02:00:15;;;;;;;3.23;2.93;;;;;;;-141.26;100.00;62741.75;5082345;28;20223;-67
2023/09/03 02:02:47;;;;;;;3.47;2.97;;;;;;;-141.26;100.00;62741.75;5080522;28;20242;-67
2023/09/03 02:05:15;;;;;;;3.60;3.30;;;;;;;-141.26;100.00;62741.75;5065541;28;20224;-67
2023/09/03 02:07:43;;;;;;;3.10;2.90;;;;;;;-141.26;100.00;62741.75;5082427;28;20226;-67
2023/09/03 02:10:10;;;;;;;4.50;3.30;;;;;;;-141.26;100.00;62741.75;5065338;28;20236;-67
2023/09/03 02:12:38;;;;;;;3.30;3.00;;;;;;;-141.26;100.00;62741.75;5065251;28;20238;-67
2023/09/03 02:15:05;;;;;;;2.77;2.57;;;;;;;-141.26;100.00;62741.75;5065295;28;20226;-67
2023/09/03 02:17:33;;;;;;;3.70;3.30;;;;;;;-141.26;100.00;62741.75;5065047;28;20231;-67
2023/09/03 02:20:01;;;;;;;2.97;2.77;;;;;;;-141.26;100.00;62741.75;5065053;28;20234;-67
2023/09/03 02:22:28;;;;;;;3.57;3.27;;;;;;;-141.26;100.00;62741.75;5064996;28;20305;-67
2023/09/03 02:24:55;;;;;;;4.73;3.27;;;;;;;-141.26;100.00;62741.75;5064943;28;20305;-67
2023/09/03 02:27:23;;;;;;;4.30;2.70;;;;;;;-141.26;100.00;62741.75;5064460;28;20234;-67
2023/09/03 02:29:50;;;;;;;4.97;2.80;;;;;;;-141.26;100.00;62741.75;5064979;28;20249;-67
2023/09/03 02:32:17;;;;;;;3.37;3.07;;;;;;;-141.26;100.00;62741.75;5081718;28;20223;-67
2023/09/03 02:34:45;;;;;;;3.40;2.90;;;;;;;-141.26;100.00;62741.75;5064901;28;20265;-67
2023/09/03 02:37:16;;;;;;;3.10;2.87;;;;;;;-141.26;100.00;62741.75;5081653;28;20230;-67
2023/09/03 02:39:43;;;;;;;3.30;3.00;;;;;;;-141.26;100.00;62741.75;5063805;28;20221;-67
2023/09/03 02:42:11;;;;;;;2.77;2.57;;;;;;;-141.26;100.00;62741.75;5064860;28;20218;-67
2023/09/03 02:44:38;;;;;;;2.97;2.60;;;;;;;-141.26;100.00;62741.75;5064637;28;20226;-67
2023/09/03 02:47:05;;;;;;;4.13;2.97;;;;;;;-141.26;100.00;62741.75;5064496;28;20222;-67
2023/09/03 02:49:32;;;;;;;3.83;3.10;;;;;;;-141.26;100.00;62741.75;5064712;28;20286;-67
2023/09/03 02:51:59;;;;;;;3.77;3.47;;;;;;;-141.26;100.00;62741.75;5064547;28;20218;-67
2023/09/03 02:54:28;;;;;;;4.60;3.60;;;;;;;-141.26;100.00;62741.75;5064650;28;20268;-67
2023/09/03 02:56:55;;;;;;;3.60;3.30;;;;;;;-141.26;100.00;62741.75;5082836;28;20228;-67
2023/09/03 02:59:22;;;;;;;3.50;3.20;;;;;;;-141.26;100.00;62741.75;5064458;28;20269;-67
2023/09/03 03:01:49;;;;;;;3.33;3.13;;;;;;;-141.26;100.00;62741.75;5064422;28;20214;-67
2023/09/03 03:04:16;;;;;;;4.07;3.27;;;;;;;-141.26;100.00;62741.75;5081350;28;20218;-67
2023/09/03 03:06:43;;;;;;;4.07;3.07;;;;;;;-141.26;100.00;62741.75;5064335;28;20228;-67
2023/09/03 03:09:11;;;;;;;4.30;3.90;;;;;;;-141.26;100.00;62741.75;5064406;28;20252;-67
2023/09/03 03:11:40;;;;;;;6.10;4.37;;;;;;;-141.26;100.00;62741.75;5064519;28;20227;-67
2023/09/03 03:14:07;;;;;;;3.83;3.53;;;;;;;-141.26;100.00;62741.75;5080950;28;20218;-67
2023/09/03 03:16:37;;;;;;;3.60;3.30;;;;;;;-141.26;100.00;62741.75;5081119;28;20222;-67
2023/09/03 03:19:10;;;;;;;3.87;3.40;;;;;;;-141.26;100.00;62741.75;5081113;28;20230;-67
2023/09/03 03:21:38;;;;;;;6.17;4.03;;;;;;;-141.26;100.00;62741.75;5064297;28;20296;-67
2023/09/03 03:24:06;;;;;;;5.47;4.33;;;;;;;-141.26;100.00;62741.75;5064243;28;20268;-67
2023/09/03 03:26:37;;;;;;;5.00;4.40;;;;;;;-141.26;100.00;62741.75;5063933;28;20401;-67
2023/09/03 03:29:09;;;;;;;5.03;4.20;;;;;;;-141.26;100.00;62741.75;5080945;28;20264;-67
2023/09/03 03:31:43;;;;;;;6.17;4.70;;;;;;;-141.26;100.00;62741.75;5064044;28;20238;-67
2023/09/03 03:34:11;;;;;;;4.53;4.10;;;;;;;-141.26;100.00;62741.75;5064153;28;20297;-67
2023/09/03 03:36:40;;;;;;;4.40;3.90;;;;;;;-141.26;100.00;62741.75;5064022;28;20224;-67
2023/09/03 03:39:07;;;;;;;4.87;4.43;;;;;;;-141.26;100.00;62741.75;5063746;28;20230;-67
2023/09/03 03:41:34;;;;;;;4.70;4.27;;;;;;;-141.26;100.00;62741.75;5080636;28;20221;-67
2023/09/03 03:44:02;;;;;;;4.70;4.30;;;;;;;-141.26;100.00;62741.75;5063882;28;20222;-67
2023/09/03 03:46:31;;;;;;;5.63;4.57;;;;;;;-141.26;100.00;62741.75;5080495;28;20214;-67
2023/09/03 03:48:59;;;;;;;5.00;4.53;;;;;;;-141.26;100.00;62741.75;5063785;28;20218;-67
2023/09/03 03:51:26;;;;;;;4.50;4.00;;;;;;;-141.26;100.00;62741.75;5063285;28;20220;-67
2023/09/03 03:53:55;;;;;;;4.63;4.23;;;;;;;-141.26;100.00;62741.75;5063860;28;20227;-67
2023/09/03 03:56:22;;;;;;;5.23;4.57;;;;;;;-141.26;100.00;62741.75;5080571;28;20218;-67
2023/09/03 03:58:50;;;;;;;5.67;4.10;;;;;;;-141.26;100.00;62741.75;5063484;28;20237;-67
2023/09/03 04:01:18;;;;;;;5.23;4.57;;;;;;;-141.26;100.00;62741.75;5063722;28;20242;-67
2023/09/03 04:03:51;;;;;;;4.57;4.17;;;;;;;-141.26;100.00;62741.75;5080457;28;20226;-67
2023/09/03 04:06:19;;;;;;;4.40;4.00;;;;;;;-141.26;100.00;62741.75;5080378;28;20214;-67
2023/09/03 04:08:47;;;;;;;5.13;4.23;;;;;;;-141.26;100.00;62741.75;5081922;28;20218;-67
2023/09/03 04:11:19;;;;;;;5.77;4.37;;;;;;;-141.26;100.00;62741.75;5063468;28;20226;-67
2023/09/03 04:13:46;;;;;;;4.60;4.30;;;;;;;-141.26;100.00;62741.75;5080107;28;20218;-67
2023/09/03 04:16:15;;;;;;;5.87;4.80;;;;;;;-141.26;100.00;62741.75;5063474;28;20230;-67
2023/09/03 04:18:43;;;;;;;6.73;4.57;;;;;;;-141.26;100.00;62741.75;5081596;28;20364;-67
2023/09/03 04:21:13;;;;;;;5.17;4.67;;;;;;;-141.26;100.00;62741.75;5080161;28;20222;-67
2023/09/03 04:23:40;;;;;;;4.47;4.07;;;;;;;-141.26;100.00;62741.75;5063408;28;20276;-67
2023/09/03 04:26:08;;;;;;;4.13;3.83;;;;;;;-141.26;100.00;62741.75;5063191;28;20374;-67
2023/09/03 04:28:40;;;;;;;4.00;3.70;;;;;;;-141.26;100.00;62741.75;5063277;28;20206;-67
2023/09/03 04:31:08;;;;;;;3.70;3.40;;;;;;;-141.26;100.00;62741.75;5079903;28;20288;-67
2023/09/03 04:33:38;;;;;;;3.37;3.07;;;;;;;-141.26;100.00;62741.75;5063333;28;20214;-67
2023/09/03 04:36:08;;;;;;;3.67;3.37;;;;;;;-141.26;100.00;62741.75;5079966;28;20226;-67
2023/09/03 04:38:38;;;;;;;3.50;3.20;;;;;;;-141.26;100.00;62741.75;5063311;28;20248;-67
2023/09/03 04:41:06;;;;;;;3.90;3.60;;;;;;;-141.26;100.00;62741.75;5063283;28;20272;-67
2023/09/03 04:43:46;;;;;;;3.43;3.23;;;;;;;-141.26;100.00;62741.75;5063129;28;20218;-67
2023/09/03 04:46:17;;;;;;;3.47;3.23;;;;;;;-141.26;100.00;62741.75;5080046;28;20214;-67
2023/09/03 04:48:44;;;;;;;3.57;3.23;;;;;;;-141.26;100.00;62741.75;5063175;28;20224;-67
2023/09/03 04:51:12;;;;;;;2.90;2.70;;;;;;;-141.26;100.00;62741.75;5062959;28;20221;-67
2023/09/03 04:53:42;;;;;;;4.87;3.30;;;;;;;-141.26;100.00;62741.75;5062927;28;20226;-67
2023/09/03 04:56:13;;;;;;;3.20;3.00;;;;;;;-141.26;100.00;62741.75;5063109;28;20244;-67
2023/09/03 04:58:40;;;;;;;4.37;3.23;;;;;;;-141.26;100.00;62741.75;5062928;28;20229;-67
2023/09/03 05:01:15;;;;;;;3.93;3.20;;;;;;;-141.26;100.00;62741.75;5062814;28;20226;-67
2023/09/03 05:03:43;;;;;;;3.50;3.00;;;;;;;-141.26;100.00;62741.75;5065944;28;20228;-67
2023/09/03 05:06:13;;;;;;;4.67;3.33;;;;;;;-141.26;100.00;62741.75;5066416;28;20301;-67
2023/09/03 05:08:43;;;;;;;3.40;3.10;;;;;;;-141.26;100.00;62741.75;5083139;28;20261;-67
2023/09/03 05:11:12;;;;;;;5.07;3.30;;;;;;;-141.26;100.00;62741.75;5083172;28;20284;-67
2023/09/03 05:13:40;;;;;;;3.23;3.03;;;;;;;-141.26;100.00;62741.75;5066196;28;20213;-67
2023/09/03 05:16:08;;;;;;;4.23;3.03;;;;;;;-141.26;100.00;62741.75;5066392;28;20303;-67
2023/09/03 05:18:36;;;;;;;3.20;2.90;;;;;;;-141.26;100.00;62741.75;5066147;28;20234;-67
2023/09/03 05:21:08;;;;;;;3.30;3.00;;;;;;;-141.26;100.00;62741.75;5066101;28;20272;-67
2023/09/03 05:23:36;;;;;;;3.07;2.80;;;;;;;-141.26;100.00;62741.75;5049894;28;20218;-67
2023/09/03 05:26:05;;;;;;;2.90;2.70;;;;;;;-141.26;100.00;62741.75;5065298;28;20309;-67
2023/09/03 05:28:33;;;;;;;2.70;2.50;;;;;;;-141.26;100.00;62741.75;5083140;28;20222;-67
2023/09/03 05:31:00;;;;;;;2.93;2.63;;;;;;;-141.26;100.00;62741.75;5065979;28;20222;-67
2023/09/03 05:33:27;;;;;;;4.83;3.40;;;;;;;-141.26;100.00;62741.75;5066039;28;20222;-67
2023/09/03 05:35:54;;;;;;;3.57;3.27;;;;;;;-141.26;100.00;62741.75;5084141;28;20218;-67
2023/09/03 05:38:22;;;;;;;3.50;3.20;;;;;;;-141.26;100.00;62741.75;5065702;28;20335;-67
2023/09/03 05:40:49;;;;;;;3.90;3.60;;;;;;;-141.26;100.00;62741.75;5065657;28;20223;-67
2023/09/03 05:43:17;;;;;;;3.90;3.50;;;;;;;-141.26;100.00;62741.75;5065721;28;20313;-67
2023/09/03 05:45:45;;;;;;;3.60;3.30;;;;;;;-141.26;100.00;62741.75;5082419;28;20248;-67
2023/09/03 05:48:13;;;;;;;3.93;3.30;;;;;;;-141.26;100.00;62741.75;5065622;28;20232;-67
2023/09/03 05:50:41;;;;;;;3.93;3.63;;;;;;;-141.26;100.00;62741.75;5065540;28;20236;-67
2023/09/03 05:53:08;;;;;;;4.93;3.80;;;;;;;-141.26;100.00;62741.75;5082563;28;20218;-67
2023/09/03 05:55:39;;;;;;;4.30;3.90;;;;;;;-141.26;100.00;62741.75;5065512;28;20222;-67
2023/09/03 05:58:06;;;;;;;4.10;3.80;;;;;;;-141.26;100.00;62741.75;5065444;28;20226;-67
2023/09/03 06:00:41;;;;;;;4.00;3.70;;;;;;;-141.26;100.00;62741.75;5082393;28;20258;-67
2023/09/03 06:03:08;;;;;;;4.23;3.63;;;;;;;-141.26;100.00;62741.75;5065450;28;20253;-67
2023/09/03 06:05:35;;;;;;;3.63;3.33;;;;;;;-141.26;100.00;62741.75;5065395;28;20218;-67
2023/09/03 06:08:02;;;;;;;4.23;3.83;;;;;;;-141.26;100.00;62741.75;5065336;28;20222;-67
2023/09/03 06:10:29;;;;;;;3.83;3.53;;;;;;;-141.26;100.00;62741.75;5082143;28;20226;-67
2023/09/03 06:12:56;;;;;;;4.30;3.90;;;;;;;-141.26;100.00;62741.75;5064947;28;20229;-67
2023/09/03 06:15:23;;;;;;;5.10;3.93;;;;;;;-141.26;100.00;62741.75;5065302;28;20222;-67
2023/09/03 06:17:53;;;;;;;4.50;4.10;;;;;;;-141.26;100.00;62741.75;5064877;28;20284;-67
2023/09/03 06:20:20;;;;;;;4.33;3.90;;;;;;;-141.26;100.00;62741.75;5083271;28;20222;-67
2023/09/03 06:22:47;;;;;;;4.53;3.80;;;;;;;-141.26;100.00;62741.75;5065088;28;20226;-67
2023/09/03 06:25:14;;;;;;;3.63;3.43;;;;;;;-141.26;100.00;62741.75;5083293;28;20214;-67
2023/09/03 06:27:41;;;;;;;4.63;4.23;;;;;;;-141.26;100.00;62741.75;5081180;28;20238;-67
2023/09/03 06:30:09;;;;;;;3.83;3.53;;;;;;;-141.26;100.00;62741.75;5064907;28;20222;-67
2023/09/03 06:32:37;;;;;;;4.70;3.80;;;;;;;-141.26;100.00;62741.75;5064991;28;20242;-67
2023/09/03 06:35:06;;;;;;;4.03;3.73;;;;;;;-141.26;100.00;62741.75;5064923;28;20225;-67
2023/09/03 06:37:33;;;;;;;4.00;3.60;;;;;;;-141.26;100.00;62741.75;5081814;28;20245;-67
2023/09/03 06:40:00;;;;;;;4.03;3.63;;;;;;;-141.26;100.00;62741.75;5064599;28;20236;-67
2023/09/03 06:42:29;;;;;;;4.30;3.90;;;;;;;-141.26;100.00;62741.75;5081818;28;20241;-67
2023/09/03 06:44:56;;;;;;;3.87;3.60;;;;;;;-141.26;100.00;62741.75;5064642;28;20224;-67
2023/09/03 06:47:23;;;;;;;4.70;4.00;;;;;;;-141.26;100.00;62741.75;5064763;28;20254;-67
2023/09/03 06:49:51;;;;;;;4.00;3.60;;;;;;;-141.26;100.00;62741.75;5081557;28;20220;-67
2023/09/03 06:52:20;;;;;;;4.10;3.80;;;;;;;-141.26;100.00;62741.75;5064742;28;20228;-67
2023/09/03 06:54:47;;;;;;;5.53;3.40;;;;;;;-141.26;100.00;62741.75;5082707;28;20214;-67
2023/09/03 06:57:14;;;;;;;3.83;3.50;;;;;;;-141.26;100.00;62741.75;5082839;28;20260;-67
2023/09/03 06:59:42;;;;;;;4.03;3.63;;;;;;;-141.26;100.00;62741.75;5064559;28;20323;-67
2023/09/03 07:02:09;;;;;;;3.90;3.60;;;;;;;-141.26;100.00;62741.75;5064500;28;20220;-67
2023/09/03 07:04:36;;;;;;;4.20;3.80;;;;;;;-141.26;100.00;62741.75;5081277;28;20214;-67
2023/09/03 07:07:04;;;;;;;6.00;3.70;;;;;;;-141.26;100.00;62741.75;5064510;28;20292;-67
2023/09/03 07:09:33;;;;;;;3.87;3.47;;;;;;;-141.26;100.00;62741.75;5064212;28;20317;-67
2023/09/03 07:12:00;;;;;;;3.90;3.50;;;;;;;-141.26;100.00;62741.75;5064331;28;20214;-67
2023/09/03 07:14:27;;;;;;;4.53;3.03;;;;;;;-141.26;100.00;62741.75;5081317;28;20225;-67
2023/09/03 07:16:54;;;;;;;5.43;3.50;;;;;;;-141.26;100.00;62741.75;5064223;28;20233;-67
2023/09/03 07:19:22;;;;;;;3.50;3.30;;;;;;;-141.26;100.00;62741.75;5064076;28;20280;-67
2023/09/03 07:21:49;;;;;;;4.50;3.40;;;;;;;-141.26;100.00;62741.75;5064130;28;20232;-67
2023/09/03 07:24:16;;;;;;;4.40;3.37;;;;;;;-141.26;100.00;62741.75;5063830;28;20222;-67
2023/09/03 07:26:45;;;;;;;3.73;3.20;;;;;;;-141.26;100.00;62741.75;5063243;28;20322;-67
2023/09/03 07:29:14;;;;;;;3.20;3.00;;;;;;;-141.26;100.00;62741.75;5082256;28;20221;-67
2023/09/03 07:31:43;;;;;;;3.73;3.13;;;;;;;-141.26;100.00;62741.75;5080976;28;20224;-67
2023/09/03 07:34:10;;;;;;;4.97;3.23;;;;;;;-141.26;100.00;62741.75;5082252;28;20273;-67
2023/09/03 07:36:38;;;;;;;3.33;3.03;;;;;;;-141.26;100.00;62741.75;5063911;28;20316;-67
2023/09/03 07:39:06;;;;;;;4.10;3.20;;;;;;;-141.26;100.00;62741.75;5063762;28;20257;-67
2023/09/03 07:41:34;;;;;;;3.30;3.00;;;;;;;-141.26;100.00;62741.75;5082306;28;20248;-67
2023/09/03 07:44:02;;;;;;;3.20;2.90;;;;;;;-141.26;100.00;62741.75;5082174;28;20214;-67
2023/09/03 07:46:29;;;;;;;3.10;2.80;;;;;;;-141.26;100.00;62741.75;5063879;28;20224;-67
2023/09/03 07:48:56;;;;;;;2.93;2.70;;;;;;;-141.26;100.00;62741.75;5063881;28;20313;-67
2023/09/03 07:51:24;;;;;;;3.03;2.83;;;;;;;-141.26;100.00;62741.75;5063562;28;20221;-67
2023/09/03 07:53:51;;;;;;;5.40;3.00;;;;;;;-141.26;100.00;62741.75;5063706;28;20253;-67
2023/09/03 07:56:18;;;;;;;4.00;2.90;;;;;;;-141.26;100.00;62741.75;5063637;28;20291;-67
2023/09/03 07:58:46;;;;;;;3.13;2.93;;;;;;;-141.26;100.00;62741.75;5063626;28;20230;-67
2023/09/03 08:01:16;;;;;;;3.93;3.07;;;;;;;-141.26;100.00;62741.75;5063765;28;20218;-67
2023/09/03 08:03:44;;;;;;;3.87;3.00;;;;;;;-141.26;100.00;62741.75;5063591;28;20214;-67
2023/09/03 08:06:13;;;;;;;2.83;2.63;;;;;;;-141.26;100.00;62741.75;5063556;28;20250;-67
2023/09/03 08:08:40;;;;;;;4.47;3.20;;;;;;;-141.26;100.00;62741.75;5063487;28;20225;-67
2023/09/03 08:11:07;;;;;;;3.30;3.10;;;;;;;-141.26;100.00;62741.75;5063565;28;20225;-67
2023/09/03 08:13:34;;;;;;;3.10;2.90;;;;;;;-141.26;100.00;62741.75;5063474;28;20232;-67
2023/09/03 08:16:02;;;;;;;3.70;2.93;;;;;;;-141.26;100.00;62741.75;5063546;28;20256;-67
2023/09/03 08:18:30;;;;;;;3.20;2.90;;;;;;;-141.26;100.00;62741.75;5080197;28;20364;-67
2023/09/03 08:20:58;;;;;;;3.20;2.90;;;;;;;-141.26;100.00;62741.75;5063566;28;20237;-67
2023/09/03 08:23:25;;;;;;;3.70;3.00;;;;;;;-141.26;100.00;62741.75;5063425;28;20268;-67
2023/09/03 08:25:52;;;;;;;3.50;3.00;;;;;;;-141.26;100.00;62741.75;5063121;28;20226;-67
2023/09/03 08:28:19;;;;;;;3.10;2.80;;;;;;;-141.26;100.00;62741.75;5080384;28;20305;-67
2023/09/03 08:30:47;;;;;;;2.90;2.70;;;;;;;-141.26;100.00;62741.75;5063358;28;20226;-67
2023/09/03 08:33:14;;;;;;;4.20;2.90;;;;;;;-141.26;100.00;62741.75;5063422;28;20226;-67
2023/09/03 08:35:42;;;;;;;2.63;2.43;;;;;;;-141.26;100.00;62741.75;5063050;28;20214;-67
2023/09/03 08:38:10;;;;;;;3.27;2.70;;;;;;;-141.26;100.00;62741.75;5066797;28;20317;-67
2023/09/03 08:40:37;;;;;;;2.97;2.70;;;;;;;-141.26;100.00;62741.75;5066696;28;20336;-67
2023/09/03 08:43:07;;;;;;;2.40;2.30;;;;;;;-141.26;100.00;62741.75;5085130;28;20222;-67
2023/09/03 08:45:38;;;;;;;2.93;2.67;;;;;;;-141.26;100.00;62741.75;5084964;28;20292;-67
2023/09/03 08:48:06;;;;;;;3.03;2.63;;;;;;;-141.26;100.00;62741.75;5085095;28;20202;-67
2023/09/03 08:50:33;;;;;;;3.53;2.87;;;;;;;-141.26;100.00;62741.75;5083522;28;20233;-67
2023/09/03 08:53:03;;;;;;;3.00;2.70;;;;;;;-141.26;100.00;62741.75;5066524;28;20310;-67
2023/09/03 08:55:32;;;;;;;3.03;2.40;;;;;;;-141.26;100.00;62741.75;5084663;28;20218;-67
2023/09/03 08:57:59;;;;;;;3.30;2.60;;;;;;;-141.26;100.00;62741.75;5066485;28;20232;-67
2023/09/03 09:00:27;;;;;;;2.80;2.60;;;;;;;-141.26;100.00;62741.75;5083267;28;20280;-67
2023/09/03 09:02:56;;;;;;;2.97;2.67;;;;;;;-141.26;100.00;62741.75;5084714;28;20219;-67
2023/09/03 09:05:24;;;;;;;3.20;2.93;;;;;;;-141.26;100.00;62741.75;5084611;28;20245;-67
2023/09/03 09:07:51;;;;;;;4.10;2.80;;;;;;;-141.26;100.00;62741.75;5066334;28;20226;-67
2023/09/03 09:10:28;;;;;;;2.40;2.20;;;;;;;-141.26;100.00;62741.75;5066316;28;20225;-67
2023/09/03 09:13:00;;;;;;;3.17;2.80;;;;;;;-141.26;100.00;62741.75;5084759;28;20206;-67
2023/09/03 09:15:27;;;;;;;2.87;2.67;;;;;;;-141.26;100.00;62741.75;5083296;28;20264;-67
2023/09/03 09:17:54;;;;;;;2.87;2.53;;;;;;;-141.26;100.00;62741.75;5084537;28;20225;-67
2023/09/03 09:20:21;;;;;;;2.93;2.67;;;;;;;-141.26;100.00;62741.75;5065974;28;20234;-67
2023/09/03 09:22:50;;;;;;;3.73;2.60;;;;;;;-141.26;100.00;62741.75;5065986;28;20218;-67
2023/09/03 09:25:22;;;;;;;2.60;2.40;;;;;;;-141.26;100.00;62741.75;5066074;28;20234;-67
2023/09/03 09:27:51;;;;;;;5.03;2.63;;;;;;;-141.26;100.00;62741.75;5082351;28;20234;-67
2023/09/03 09:30:21;;;;;;;3.13;2.83;;;;;;;-141.26;100.00;62741.75;5065952;28;20214;-67
2023/09/03 09:32:48;;;;;;;3.50;2.50;;;;;;;-141.26;100.00;62741.75;5065815;28;20217;-67
2023/09/03 09:35:24;;;;;;;2.80;2.60;;;;;;;-141.26;100.00;62741.75;5084246;28;20210;-67
2023/09/03 09:37:51;;;;;;;3.73;2.40;;;;;;;-141.26;100.00;62741.75;5065921;28;20217;-67
2023/09/03 09:40:28;;;;;;;2.50;2.30;;;;;;;-141.26;100.00;62741.75;5083986;28;20305;-67
2023/09/03 09:42:57;;;;;;;2.90;2.60;;;;;;;-141.26;100.00;62741.75;5066028;28;20313;-67
2023/09/03 09:45:24;;;;;;;2.83;2.40;;;;;;;-141.26;100.00;62741.75;5065740;28;20214;-67
2023/09/03 09:48:04;;;;;;;3.23;2.90;;;;;;;-141.26;100.00;62741.75;5083255;28;20297;-67
2023/09/03 09:50:32;;;;;;;2.97;2.40;;;;;;;-141.26;100.00;62741.75;5065629;28;20222;-67
2023/09/03 09:52:59;;;;;;;2.83;2.17;;;;;;;-141.26;100.00;62741.75;5082539;28;20210;-67
2023/09/03 09:55:31;;;;;;;2.37;2.20;;;;;;;-141.26;100.00;62741.75;5065575;28;20218;-67
2023/09/03 09:57:58;;;;;;;2.17;2.03;;;;;;;-141.26;100.00;62741.75;5065663;28;20284;-67
2023/09/03 10:00:35;;;;;;;3.07;2.33;;;;;;;-141.26;100.00;62741.75;5082296;28;20237;-67
2023/09/03 10:03:04;;;;;;;2.73;2.30;;;;;;;-141.26;100.00;62741.75;5082307;28;20221;-67
2023/09/03 10:05:31;;;;;;;2.23;2.03;;;;;;;-141.26;100.00;62741.75;5083654;28;20226;-67
2023/09/03 10:08:00;;;;;;;2.43;2.20;;;;;;;-141.26;100.00;62741.75;5065300;28;20271;-67
2023/09/03 10:10:29;;;;;;;2.40;2.00;;;;;;;-141.26;100.00;62741.75;5065364;28;20218;-67
2023/09/03 10:12:56;;;;;;;2.80;2.60;;;;;;;-141.26;100.00;62741.75;5082099;28;20265;-67
2023/09/03 10:15:26;;;;;;;3.13;2.60;;;;;;;-141.26;100.00;62741.75;5065225;28;20224;-67
2023/09/03 10:17:55;;;;;;;2.47;2.27;;;;;;;-141.26;100.00;62741.75;5065130;28;20309;-67
2023/09/03 10:20:23;;;;;;;2.63;2.43;;;;;;;-141.26;100.00;62741.75;5081960;28;20230;-67
2023/09/03 10:22:52;;;;;;;4.13;2.70;;;;;;;-141.26;100.00;62741.75;5065097;28;20222;-67
2023/09/03 10:25:23;;;;;;;2.47;2.27;;;;;;;-141.26;100.00;62741.75;5065074;28;20241;-67
2023/09/03 10:27:58;;;;;;;2.00;1.90;;;;;;;-141.26;100.00;62741.75;5064630;28;20238;-67
2023/09/03 10:30:30;;;;;;;2.17;2.07;;;;;;;-141.26;100.00;62741.75;5081928;28;20305;-67
2023/09/03 10:32:58;;;;;;;2.50;2.30;;;;;;;-141.26;100.00;62741.75;5065122;28;20233;-67
2023/09/03 10:35:25;;;;;;;2.87;2.23;;;;;;;-141.26;100.00;62741.75;5064990;28;20214;-67
2023/09/03 10:37:53;;;;;;;2.30;2.10;;;;;;;-141.26;100.00;62741.75;5083243;28;20244;-67
2023/09/03 10:40:22;;;;;;;3.07;2.07;;;;;;;-141.26;100.00;62741.75;5083260;28;20226;-67
2023/09/03 10:42:49;;;;;;;2.30;1.90;;;;;;;-141.26;100.00;62741.75;5081874;28;20243;-67
2023/09/03 10:45:18;;;;;;;2.17;1.97;;;;;;;-141.26;100.00;62741.75;5064772;28;20222;-67
2023/09/03 10:48:02;;;;;;;3.33;2.23;;;;;;;-141.26;100.00;62741.75;5064633;28;20226;-67
2023/09/03 10:50:42;;;;;;;2.10;1.90;;;;;;;-141.26;100.00;62741.75;5083068;28;20249;-67
2023/09/03 10:53:10;;;;;;;2.90;2.00;;;;;;;-141.26;100.00;62741.75;5083098;28;20305;-67
2023/09/03 10:55:37;;;;;;;1.67;1.57;;;;;;;-141.26;100.00;62741.75;5064573;28;20222;-67
2023/09/03 10:58:30;;;;;;;2.13;1.93;;;;;;;-141.26;100.00;62741.75;5081511;28;20226;-67
2023/09/03 11:01:22;;;;;;;1.53;1.43;;;;;;;-141.26;100.00;62741.75;5059791;28;20253;-67
2023/09/03 11:03:50;;;;;;;1.70;1.60;;;;;;;-141.26;100.00;62741.75;5081446;28;20260;-67
2023/09/03 11:06:20;;;;;;;1.70;1.60;;;;;;;-141.26;100.00;62741.75;5064438;28;20241;-67
2023/09/03 11:08:48;;;;;;;2.27;1.50;;;;;;;-141.26;100.00;62741.75;5064420;28;20321;-67
2023/09/03 11:11:20;;;;;;;1.40;1.30;;;;;;;-141.26;100.00;62741.75;5064345;28;20221;-67
2023/09/03 11:13:52;;;;;;;1.60;1.50;;;;;;;-141.26;100.00;62741.75;5064329;28;20269;-67
2023/09/03 11:16:28;;;;;;;1.83;1.63;;;;;;;-141.26;100.00;62741.75;5064172;28;20222;-67
2023/09/03 11:18:55;;;;;;;2.90;1.67;;;;;;;-141.26;100.00;62741.75;5064395;28;20308;-67